Time;durP1;ratioP1;P1;durP2;ratioP2;P2;SDS_P1;SDS_P2;PMS_P1;PMS_P2;Temp;Humidity;BMP_temperature;BMP_pressure;BME280_temperature;BME280_humidity;BME280_pressure;Samples;Min_cycle;Max_cycle;Signal;HPM_P1;HPM_P2
2021/05/08 00:00:08;;;;;;;6.55;3.33;;;;;;;4.96;61.99;97136.96;1824288;77;25861;-79
2021/05/08 00:02:37;;;;;;;6.50;3.30;;;;;;;4.93;62.06;97135.51;1824245;77;25646;-79
2021/05/08 00:05:06;;;;;;;7.42;3.77;;;;;;;4.90;62.21;97135.03;1824361;77;27779;-79
2021/05/08 00:07:33;;;;;;;5.15;3.92;;;;;;;4.84;62.27;97135.74;1824238;77;26237;-79
2021/05/08 00:10:00;;;;;;;5.60;3.45;;;;;;;4.81;62.26;97144.16;1824226;77;25730;-79
2021/05/08 00:12:27;;;;;;;6.37;4.10;;;;;;;4.80;62.42;97143.83;1824227;77;25797;-79
2021/05/08 00:14:55;;;;;;;6.90;4.40;;;;;;;4.80;62.43;97135.80;1824100;77;25737;-79
2021/05/08 00:17:22;;;;;;;5.35;3.95;;;;;;;4.74;62.52;97140.52;1849595;76;27431;-80
2021/05/08 00:19:49;;;;;;;7.05;5.30;;;;;;;4.77;62.66;97141.00;1841936;77;25680;-78
2021/05/08 00:22:17;;;;;;;7.62;4.17;;;;;;;4.79;62.79;97144.84;1839920;76;25831;-79
2021/05/08 00:24:44;;;;;;;8.30;4.85;;;;;;;4.82;62.62;97148.49;1823715;77;25773;-79
2021/05/08 00:27:11;;;;;;;5.33;4.03;;;;;;;4.80;62.79;97147.84;1840592;77;25671;-79
2021/05/08 00:29:38;;;;;;;6.03;4.42;;;;;;;4.81;62.90;97150.84;1826348;77;27763;-80
2021/05/08 00:32:06;;;;;;;6.42;4.50;;;;;;;4.86;62.95;97148.44;1838382;77;26399;-79
2021/05/08 00:34:33;;;;;;;6.80;4.75;;;;;;;4.90;62.76;97144.39;1839286;76;25334;-79
2021/05/08 00:37:01;;;;;;;7.40;4.50;;;;;;;4.92;62.87;97154.41;1839154;77;26489;-79
2021/05/08 00:39:28;;;;;;;7.70;5.25;;;;;;;4.95;62.77;97143.35;1841215;77;25334;-79
2021/05/08 00:41:56;;;;;;;8.33;5.60;;;;;;;4.96;62.77;97147.66;1840721;77;27479;-78
2021/05/08 00:44:23;;;;;;;8.90;5.70;;;;;;;4.96;62.67;97146.32;1846351;76;26358;-79
2021/05/08 00:46:51;;;;;;;7.12;5.28;;;;;;;4.96;62.73;97155.69;1846531;77;25931;-79
2021/05/08 00:49:20;;;;;;;7.42;5.03;;;;;;;4.95;62.82;97150.04;1846553;77;25783;-79
2021/05/08 00:51:48;;;;;;;8.68;6.03;;;;;;;4.97;62.91;97153.34;1846590;77;25864;-79
2021/05/08 00:54:16;;;;;;;7.50;6.00;;;;;;;5.00;62.94;97156.48;1808425;77;27492;-79
2021/05/08 00:56:44;;;;;;;8.98;6.33;;;;;;;5.03;62.81;97160.65;1799202;77;25740;-79
2021/05/08 00:59:13;;;;;;;7.50;5.40;;;;;;;5.03;62.71;97161.98;1832654;77;25737;-78
2021/05/08 01:01:40;;;;;;;8.95;6.20;;;;;;;5.00;62.85;97161.00;1799329;77;26463;-78
2021/05/08 01:04:08;;;;;;;8.38;5.47;;;;;;;4.97;62.79;97162.70;1799365;77;26052;-79
2021/05/08 01:06:37;;;;;;;7.85;5.45;;;;;;;4.96;62.90;97162.38;1832612;77;27477;-79
2021/05/08 01:09:05;;;;;;;7.33;5.35;;;;;;;4.96;62.94;97171.73;1787178;77;25865;-79
2021/05/08 01:11:33;;;;;;;7.53;4.55;;;;;;;4.96;63.05;97177.08;1801806;77;25682;-79
2021/05/08 01:14:01;;;;;;;6.87;5.00;;;;;;;4.99;63.14;97179.41;1799275;77;25702;-78
2021/05/08 01:16:28;;;;;;;6.60;5.25;;;;;;;4.98;63.21;97180.41;1832867;76;25838;-79
2021/05/08 01:18:59;;;;;;;8.58;5.08;;;;;;;5.01;63.15;97180.06;1845668;77;27485;-79
2021/05/08 01:21:27;;;;;;;6.85;5.10;;;;;;;5.02;63.24;97181.72;1842574;77;25689;-80
2021/05/08 01:23:54;;;;;;;11.38;5.75;;;;;;;5.04;63.13;97182.38;1795450;77;25833;-80
2021/05/08 01:26:21;;;;;;;7.72;5.15;;;;;;;5.06;63.16;97185.20;1787295;77;25751;-80
2021/05/08 01:28:49;;;;;;;7.35;5.17;;;;;;;5.08;63.21;97193.02;1787309;77;25900;-79
2021/05/08 01:31:17;;;;;;;6.97;4.55;;;;;;;5.06;63.13;97192.39;1795830;77;28451;-80
2021/05/08 01:33:45;;;;;;;8.53;4.95;;;;;;;5.02;62.89;97196.44;1809397;77;25709;-79
2021/05/08 01:36:12;;;;;;;6.47;4.60;;;;;;;5.03;62.85;97200.78;1804434;77;25769;-77
2021/05/08 01:38:39;;;;;;;5.10;3.90;;;;;;;5.03;62.63;97208.80;1830561;77;25718;-79
2021/05/08 01:41:09;;;;;;;5.97;4.35;;;;;;;5.01;62.62;97208.14;1790754;77;25711;-79
2021/05/08 01:43:37;;;;;;;8.53;4.62;;;;;;;5.02;62.57;97209.31;1799684;77;28414;-79
2021/05/08 01:46:05;;;;;;;5.30;3.83;;;;;;;5.01;62.66;97221.52;1799415;77;26165;-79
2021/05/08 01:48:32;;;;;;;5.22;4.05;;;;;;;5.00;62.66;97217.18;1842649;77;25863;-79
2021/05/08 01:51:00;;;;;;;5.67;3.83;;;;;;;4.98;62.55;97219.20;1815657;77;25774;-79
2021/05/08 01:53:28;;;;;;;7.40;4.17;;;;;;;4.98;62.67;97223.21;1809547;77;25647;-80
2021/05/08 01:55:55;;;;;;;7.10;4.55;;;;;;;4.96;62.84;97229.24;1809449;77;28840;-80
2021/05/08 01:58:23;;;;;;;6.28;4.08;;;;;;;4.98;62.77;97232.58;1809380;77;25409;-80
2021/05/08 02:00:51;;;;;;;6.22;4.05;;;;;;;5.01;62.78;97234.39;1809493;77;25687;-78
2021/05/08 02:03:18;;;;;;;5.70;3.98;;;;;;;5.03;62.75;97236.39;1809565;77;25746;-80
2021/05/08 02:05:47;;;;;;;5.28;3.70;;;;;;;5.04;62.59;97239.39;1828784;77;25858;-78
2021/05/08 02:08:15;;;;;;;5.42;3.60;;;;;;;5.03;62.64;97239.56;1812537;77;27478;-79
2021/05/08 02:10:45;;;;;;;5.35;3.40;;;;;;;5.01;62.65;97242.42;1809300;77;25902;-77
2021/05/08 02:13:14;;;;;;;4.37;3.08;;;;;;;5.00;62.54;97238.58;1809508;77;25738;-77
2021/05/08 02:15:42;;;;;;;4.72;3.42;;;;;;;4.94;62.51;97243.33;1818687;77;26440;-80
2021/05/08 02:18:10;;;;;;;4.90;2.87;;;;;;;4.86;62.58;97249.56;1846300;77;25848;-77
2021/05/08 02:20:41;;;;;;;5.12;2.58;;;;;;;4.84;62.60;97251.58;1851364;77;27540;-79
2021/05/08 02:23:12;;;;;;;5.10;2.50;;;;;;;4.82;62.57;97244.27;1851670;77;25826;-79
2021/05/08 02:25:40;;;;;;;5.67;2.67;;;;;;;4.80;62.65;97250.29;1826610;77;25714;-80
2021/05/08 02:28:08;;;;;;;4.85;2.60;;;;;;;4.78;62.51;97248.80;1848378;76;25856;-78
2021/05/08 02:30:39;;;;;;;3.58;2.65;;;;;;;4.77;62.53;97253.31;1811884;77;25802;-79
2021/05/08 02:33:07;;;;;;;5.25;2.70;;;;;;;4.79;62.53;97251.80;1851625;77;27487;-79
2021/05/08 02:35:36;;;;;;;3.37;2.58;;;;;;;4.78;62.60;97261.66;1818556;77;26187;-79
2021/05/08 02:38:04;;;;;;;3.30;2.22;;;;;;;4.78;62.58;97259.49;1818169;77;25946;-78
2021/05/08 02:40:36;;;;;;;3.05;2.75;;;;;;;4.79;62.59;97259.83;1818126;77;25758;-79
2021/05/08 02:43:08;;;;;;;3.27;2.58;;;;;;;4.77;62.50;97263.17;1818483;77;25825;-80
2021/05/08 02:45:35;;;;;;;3.67;2.70;;;;;;;4.75;62.67;97270.54;1818509;77;28552;-79
2021/05/08 02:48:04;;;;;;;4.08;2.62;;;;;;;4.80;62.54;97266.84;1818233;77;26251;-79
2021/05/08 02:50:31;;;;;;;4.78;2.90;;;;;;;4.80;62.60;97271.69;1841892;77;25333;-79
2021/05/08 02:52:59;;;;;;;5.17;3.08;;;;;;;4.80;62.62;97268.17;1818277;77;26415;-80
2021/05/08 02:55:26;;;;;;;5.17;3.15;;;;;;;4.82;62.63;97272.84;1824537;77;25765;-80
2021/05/08 02:57:53;;;;;;;3.98;2.75;;;;;;;4.87;62.69;97277.14;1821439;77;27614;-79
2021/05/08 03:00:21;;;;;;;3.30;2.30;;;;;;;4.94;62.68;97276.77;1820400;77;25726;-79
2021/05/08 03:02:48;;;;;;;4.92;3.02;;;;;;;4.95;62.47;97279.77;1818248;77;25757;-79
2021/05/08 03:05:15;;;;;;;5.28;2.70;;;;;;;4.92;62.36;97276.94;1818330;77;25706;-79
2021/05/08 03:07:43;;;;;;;3.02;2.58;;;;;;;4.89;62.28;97273.78;1841857;77;26299;-78
2021/05/08 03:10:11;;;;;;;3.20;2.22;;;;;;;4.86;62.30;97272.80;1826610;77;27762;-79
2021/05/08 03:12:38;;;;;;;3.27;2.65;;;;;;;4.85;62.43;97277.81;1823450;77;26149;-79
2021/05/08 03:15:07;;;;;;;4.42;2.40;;;;;;;4.85;62.32;97285.84;1824660;77;25764;-79
2021/05/08 03:17:34;;;;;;;4.22;2.60;;;;;;;4.85;62.27;97287.17;1824620;77;26463;-80
2021/05/08 03:20:03;;;;;;;3.72;3.30;;;;;;;4.87;62.21;97286.50;1818347;77;25734;-79
2021/05/08 03:22:32;;;;;;;3.50;2.50;;;;;;;4.85;62.27;97292.02;1823427;77;27519;-80
2021/05/08 03:24:59;;;;;;;5.10;3.05;;;;;;;4.88;62.28;97292.17;1814095;77;25708;-80
2021/05/08 03:27:27;;;;;;;6.15;3.42;;;;;;;4.89;62.34;97295.18;1837445;77;25725;-78
2021/05/08 03:29:54;;;;;;;4.78;3.40;;;;;;;4.89;62.33;97289.83;1815359;77;25921;-79
2021/05/08 03:32:21;;;;;;;8.40;3.75;;;;;;;4.86;62.31;97295.53;1809715;77;25865;-79
2021/05/08 03:34:48;;;;;;;5.50;3.37;;;;;;;4.86;62.38;97304.89;1810291;77;28576;-80
2021/05/08 03:37:16;;;;;;;6.05;3.60;;;;;;;4.87;62.54;97305.22;1842569;77;25820;-78
2021/05/08 03:39:43;;;;;;;4.47;3.20;;;;;;;4.90;62.51;97311.05;1821383;77;25742;-80
2021/05/08 03:42:11;;;;;;;3.40;2.58;;;;;;;4.89;62.48;97314.73;1809388;77;26308;-79
2021/05/08 03:44:38;;;;;;;4.53;2.95;;;;;;;4.89;62.38;97315.23;1809655;77;25805;-79
2021/05/08 03:47:05;;;;;;;3.37;2.85;;;;;;;4.89;62.52;97323.27;1825231;77;27548;-78
2021/05/08 03:49:33;;;;;;;4.12;2.80;;;;;;;4.90;62.34;97323.09;1809440;77;25795;-80
2021/05/08 03:52:04;;;;;;;5.40;3.05;;;;;;;4.92;62.38;97323.75;1809512;77;25834;-80
2021/05/08 03:54:33;;;;;;;3.87;3.00;;;;;;;4.95;62.42;97329.26;1809638;77;25823;-80
2021/05/08 03:57:01;;;;;;;5.55;3.60;;;;;;;5.00;62.48;97336.22;1810887;77;25581;-80
2021/05/08 03:59:29;;;;;;;5.40;3.47;;;;;;;4.98;62.61;97339.58;1835863;77;27553;-80
2021/05/08 04:01:56;;;;;;;7.33;3.37;;;;;;;4.99;62.78;97345.26;1819828;77;25773;-79
2021/05/08 04:04:24;;;;;;;4.90;3.70;;;;;;;5.01;62.59;97348.59;1809555;77;26270;-80
2021/05/08 04:06:51;;;;;;;4.17;3.47;;;;;;;5.01;62.74;97345.91;1809581;77;26856;-80
2021/05/08 04:09:19;;;;;;;4.10;3.20;;;;;;;5.00;62.91;97354.95;1809520;77;25791;-80
2021/05/08 04:11:46;;;;;;;5.75;3.22;;;;;;;5.00;62.84;97355.78;1834603;77;28427;-80
2021/05/08 04:14:13;;;;;;;4.80;3.67;;;;;;;5.03;62.97;97359.95;1821122;77;25782;-80
2021/05/08 04:16:41;;;;;;;5.45;3.12;;;;;;;5.06;62.98;97360.95;1817947;77;26252;-79
2021/05/08 04:19:08;;;;;;;6.95;3.83;;;;;;;5.09;62.97;97357.89;1817581;77;26022;-80
2021/05/08 04:21:35;;;;;;;4.80;3.35;;;;;;;5.15;63.09;97363.87;1773491;79;25774;-79
2021/05/08 04:24:03;;;;;;;6.87;4.05;;;;;;;5.22;63.16;97364.82;1795610;78;27540;-79
2021/05/08 04:26:31;;;;;;;9.05;3.85;;;;;;;5.19;62.88;97367.05;1795579;79;26183;-80
2021/05/08 04:28:58;;;;;;;7.00;3.58;;;;;;;5.17;62.86;97364.55;1793122;79;25814;-79
2021/05/08 04:31:25;;;;;;;8.90;4.10;;;;;;;5.21;63.04;97367.16;1763962;79;25888;-79
2021/05/08 04:33:53;;;;;;;6.87;4.00;;;;;;;5.25;62.93;97365.81;1764011;79;26287;-78
2021/05/08 04:36:20;;;;;;;4.62;3.33;;;;;;;5.30;62.79;97372.80;1785843;79;28418;-79
2021/05/08 04:38:47;;;;;;;3.62;2.85;;;;;;;5.27;62.73;97366.47;1772218;79;25758;-79
2021/05/08 04:41:14;;;;;;;6.35;3.50;;;;;;;5.28;62.75;97372.15;1794624;78;25771;-79
2021/05/08 04:43:42;;;;;;;5.22;3.45;;;;;;;5.29;62.68;97375.16;1778457;79;25885;-79
2021/05/08 04:46:10;;;;;;;7.00;4.30;;;;;;;5.29;62.72;97381.84;1768948;79;25785;-79
2021/05/08 04:48:37;;;;;;;4.62;3.17;;;;;;;5.29;62.81;97381.02;1795664;79;27483;-79
2021/05/08 04:51:05;;;;;;;5.05;3.05;;;;;;;5.30;62.79;97380.84;1782696;79;25781;-79
2021/05/08 04:53:34;;;;;;;5.15;3.22;;;;;;;5.30;62.83;97386.70;1783196;79;25723;-80
2021/05/08 04:56:01;;;;;;;6.08;3.37;;;;;;;5.31;62.77;97390.50;1786544;79;26342;-79
2021/05/08 04:58:28;;;;;;;5.92;3.70;;;;;;;5.29;62.73;97387.20;1785359;79;25757;-78
2021/05/08 05:00:56;;;;;;;6.17;3.87;;;;;;;5.30;62.74;97392.88;1784101;79;27544;-80
2021/05/08 05:03:23;;;;;;;5.37;3.42;;;;;;;5.31;62.83;97398.53;1778626;79;26194;-79
2021/05/08 05:05:50;;;;;;;8.78;4.33;;;;;;;5.34;62.88;97400.86;1768144;78;25808;-78
2021/05/08 05:08:21;;;;;;;6.78;3.85;;;;;;;5.34;63.01;97403.53;1787274;79;25948;-80
2021/05/08 05:10:53;;;;;;;6.17;2.98;;;;;;;5.37;62.80;97404.53;1769374;78;26393;-80
2021/05/08 05:13:20;;;;;;;5.57;2.90;;;;;;;5.40;62.85;97414.05;1795800;78;28524;-80
2021/05/08 05:15:48;;;;;;;3.85;2.77;;;;;;;5.42;62.99;97408.85;1781319;79;26336;-80
2021/05/08 05:18:16;;;;;;;4.72;3.52;;;;;;;5.44;62.95;97417.51;1777594;77;25791;-80
2021/05/08 05:20:44;;;;;;;3.25;2.42;;;;;;;5.47;62.92;97420.34;1832809;77;25813;-79
2021/05/08 05:23:12;;;;;;;4.10;2.98;;;;;;;5.48;62.83;97423.34;1821605;77;26219;-79
2021/05/08 05:25:40;;;;;;;5.05;2.70;;;;;;;5.48;62.72;97431.89;1821580;77;28572;-80
2021/05/08 05:31:05;;;;;;;4.90;2.87;;;;;;;5.50;62.87;97434.72;1873050;74;25767;-80
2021/05/08 05:33:33;;;;;;;6.25;3.10;;;;;;;5.47;62.91;97436.91;1822120;75;25839;-80
2021/05/08 05:36:00;;;;;;;3.72;2.52;;;;;;;5.55;62.91;97443.56;1856350;75;28455;-80
2021/05/08 05:38:27;;;;;;;4.40;3.15;;;;;;;5.59;63.09;97446.19;1820127;77;26066;-80
2021/05/08 05:40:55;;;;;;;4.10;3.12;;;;;;;5.56;63.13;97446.54;1840116;75;25853;-80
2021/05/08 05:43:22;;;;;;;14.58;5.75;;;;;;;5.64;63.05;97449.17;1848105;75;25890;-80
2021/05/08 05:45:50;;;;;;;10.38;4.42;;;;;;;5.68;63.07;97450.47;1856303;75;25664;-80
2021/05/08 05:48:18;;;;;;;3.95;2.52;;;;;;;5.73;62.84;97454.28;1856229;75;27544;-80
2021/05/08 05:50:45;;;;;;;3.98;2.02;;;;;;;5.79;62.77;97459.44;1855615;75;26536;-81
2021/05/08 05:53:13;;;;;;;4.65;2.12;;;;;;;5.80;62.40;97461.08;1843795;75;25748;-80
2021/05/08 05:55:41;;;;;;;5.62;2.08;;;;;;;5.84;62.30;97453.52;1841649;75;26234;-80
2021/05/08 05:58:08;;;;;;;5.00;1.80;;;;;;;5.88;62.48;97454.37;1829155;75;25746;-80
2021/05/08 06:00:35;;;;;;;4.80;2.55;;;;;;;6.05;62.52;97447.83;1851927;75;27485;-80
2021/05/08 06:03:03;;;;;;;3.37;1.87;;;;;;;6.25;62.34;97450.00;1837618;76;25757;-81
2021/05/08 06:05:30;;;;;;;3.45;2.27;;;;;;;6.44;62.43;97447.61;1834115;77;25829;-80
2021/05/08 06:07:57;;;;;;;4.33;1.67;;;;;;;6.49;61.97;97444.38;1852429;75;25662;-81
2021/05/08 06:10:25;;;;;;;3.55;2.10;;;;;;;6.51;61.76;97450.40;1836524;75;25900;-79
2021/05/08 06:12:52;;;;;;;5.37;2.02;;;;;;;6.51;61.83;97451.74;1828926;75;28459;-80
2021/05/08 06:15:19;;;;;;;6.33;2.20;;;;;;;6.54;61.59;97443.30;1831653;77;25701;-80
2021/05/08 06:17:47;;;;;;;4.53;1.85;;;;;;;6.63;61.44;97445.41;1832820;77;25761;-79
2021/05/08 06:20:14;;;;;;;4.72;1.85;;;;;;;6.63;60.88;97450.77;1818747;75;25883;-81
2021/05/08 06:22:42;;;;;;;3.17;1.75;;;;;;;6.61;60.67;97457.66;1853700;75;26370;-81
2021/05/08 06:25:10;;;;;;;3.62;1.80;;;;;;;6.65;60.60;97448.20;1822934;75;27483;-80
2021/05/08 06:27:37;;;;;;;2.30;1.52;;;;;;;6.68;60.57;97448.34;1847017;77;25827;-79
2021/05/08 06:30:06;;;;;;;3.98;1.90;;;;;;;6.69;60.67;97442.80;1844793;75;26272;-80
2021/05/08 06:32:34;;;;;;;7.87;2.35;;;;;;;6.64;60.37;97446.53;1840622;75;26300;-80
2021/05/08 06:35:01;;;;;;;4.95;2.15;;;;;;;6.58;60.48;97454.00;1841944;76;25831;-80
2021/05/08 06:37:28;;;;;;;3.70;1.87;;;;;;;6.56;60.63;97451.17;1853960;75;27480;-81
2021/05/08 06:39:56;;;;;;;4.75;2.60;;;;;;;6.59;60.85;97452.14;1863214;75;25678;-79
2021/05/08 06:42:24;;;;;;;5.42;2.47;;;;;;;6.60;60.75;97457.84;1858837;75;25693;-82
2021/05/08 06:44:51;;;;;;;6.62;1.95;;;;;;;6.64;60.65;97462.63;1851627;76;25866;-81
2021/05/08 06:47:19;;;;;;;3.83;2.40;;;;;;;6.68;60.67;97462.59;1829169;75;25791;-80
2021/05/08 06:49:47;;;;;;;4.92;2.67;;;;;;;6.59;60.59;97469.08;1842696;75;27582;-81
2021/05/08 06:52:14;;;;;;;3.58;2.47;;;;;;;6.55;60.84;97473.13;1830603;75;25838;-80
2021/05/08 06:54:44;;;;;;;3.65;1.90;;;;;;;6.55;60.95;97476.32;1828764;75;26298;-82
2021/05/08 06:57:12;;;;;;;3.00;1.95;;;;;;;6.61;61.10;97476.43;1832587;75;25802;-79
2021/05/08 06:59:39;;;;;;;5.62;1.92;;;;;;;6.72;60.82;97473.28;1851663;76;25799;-81
2021/05/08 07:02:07;;;;;;;3.87;1.80;;;;;;;6.90;60.65;97469.37;1835535;76;27487;-80
2021/05/08 07:04:35;;;;;;;3.08;1.80;;;;;;;7.11;60.44;97472.14;1828865;77;26542;-80
2021/05/08 07:07:03;;;;;;;3.55;2.02;;;;;;;7.35;59.75;97477.69;1843386;75;26366;-82
2021/05/08 07:09:30;;;;;;;2.30;1.47;;;;;;;7.48;59.60;97471.95;1859472;76;25884;-80
2021/05/08 07:11:57;;;;;;;10.13;5.75;;;;;;;7.52;59.25;97469.19;1857842;75;26004;-82
2021/05/08 07:14:25;;;;;;;3.52;1.80;;;;;;;7.57;59.08;97469.47;1833085;75;27694;-81
2021/05/08 07:16:52;;;;;;;3.83;1.95;;;;;;;7.58;58.98;97471.13;1839629;75;25864;-81
2021/05/08 07:19:19;;;;;;;6.60;1.90;;;;;;;7.64;58.61;97472.72;1840106;75;26061;-83
2021/05/08 07:21:47;;;;;;;3.92;1.82;;;;;;;7.64;58.11;97476.23;1842409;76;25780;-82
2021/05/08 07:24:14;;;;;;;2.33;2.00;;;;;;;7.68;58.21;97482.06;1829097;75;25911;-81
2021/05/08 07:26:41;;;;;;;2.50;1.90;;;;;;;7.73;58.13;97482.34;1844291;75;27546;-81
2021/05/08 07:29:09;;;;;;;3.45;1.72;;;;;;;7.70;57.73;97482.20;1828746;77;26419;-82
2021/05/08 07:31:36;;;;;;;3.52;1.42;;;;;;;7.81;57.58;97476.83;1820131;75;25947;-80
2021/05/08 07:34:04;;;;;;;3.30;1.60;;;;;;;7.84;57.28;97482.66;1842876;77;25755;-81
2021/05/08 07:36:31;;;;;;;2.67;1.32;;;;;;;7.85;57.07;97486.15;1841687;75;25850;-81
2021/05/08 07:38:58;;;;;;;2.67;1.40;;;;;;;7.80;56.63;97491.28;1832704;77;27487;-82
2021/05/08 07:41:26;;;;;;;3.75;1.80;;;;;;;7.74;56.52;97496.06;1852127;75;26116;-82
2021/05/08 07:43:53;;;;;;;2.62;1.82;;;;;;;7.66;56.36;97491.66;1856497;75;25800;-80
2021/05/08 07:46:21;;;;;;;3.50;1.85;;;;;;;7.68;56.40;97491.47;1840076;76;25749;-80
2021/05/08 07:48:48;;;;;;;4.20;1.62;;;;;;;7.69;56.38;97487.25;1856478;77;26358;-81
2021/05/08 07:51:16;;;;;;;2.55;1.95;;;;;;;7.77;56.56;97490.31;1832240;77;28392;-81
2021/05/08 07:53:43;;;;;;;3.33;2.00;;;;;;;7.83;56.48;97497.12;1850908;77;25688;-81
2021/05/08 07:56:10;;;;;;;3.87;2.08;;;;;;;8.05;56.75;97501.14;1852055;75;25701;-81
2021/05/08 07:58:38;;;;;;;2.52;1.75;;;;;;;8.26;56.28;97499.77;1851119;77;25701;-81
2021/05/08 08:01:05;;;;;;;4.53;1.98;;;;;;;8.33;55.92;97502.55;1841551;75;25828;-82
2021/05/08 08:03:33;;;;;;;4.42;2.58;;;;;;;8.37;55.68;97505.16;1817174;75;27495;-82
2021/05/08 08:06:00;;;;;;;2.45;1.60;;;;;;;8.31;55.60;97504.06;1826979;77;26270;-81
2021/05/08 08:08:28;;;;;;;7.55;2.35;;;;;;;8.27;54.85;97508.98;1844950;75;25803;-81
2021/05/08 08:10:57;;;;;;;3.92;1.72;;;;;;;8.26;54.64;97506.48;1812609;75;25555;-82
2021/05/08 08:13:25;;;;;;;2.65;1.60;;;;;;;8.20;54.54;97510.80;1833128;75;25730;-81
2021/05/08 08:15:52;;;;;;;3.33;1.45;;;;;;;8.15;54.56;97509.19;1854192;75;27371;-81
2021/05/08 08:18:20;;;;;;;2.77;1.80;;;;;;;8.11;54.67;97502.52;1845616;77;25868;-81
2021/05/08 08:20:47;;;;;;;2.95;1.80;;;;;;;8.13;54.36;97502.34;1839949;75;25685;-81
2021/05/08 08:23:15;;;;;;;4.00;2.15;;;;;;;8.13;54.63;97504.52;1845341;75;26323;-82
2021/05/08 08:25:43;;;;;;;4.83;2.70;;;;;;;8.51;54.96;97508.27;1854237;75;25744;-81
2021/05/08 08:28:10;;;;;;;3.62;2.42;;;;;;;9.08;54.91;97515.24;1835220;76;27480;-81
2021/05/08 08:30:38;;;;;;;4.50;1.90;;;;;;;9.61;54.37;97509.58;1811103;75;26190;-82
2021/05/08 08:33:06;;;;;;;3.47;2.25;;;;;;;10.35;53.99;97507.66;1824086;75;25681;-82
2021/05/08 08:35:33;;;;;;;3.08;1.87;;;;;;;11.16;53.18;97505.98;1829390;77;25753;-81
2021/05/08 08:38:01;;;;;;;3.70;1.95;;;;;;;11.88;52.37;97502.15;1826344;75;25759;-81
2021/05/08 08:40:29;;;;;;;3.50;2.00;;;;;;;12.67;51.28;97496.69;1856729;75;28468;-81
2021/05/08 08:42:57;;;;;;;2.30;1.90;;;;;;;13.33;50.42;97480.57;1844789;77;26459;-81
2021/05/08 08:45:24;;;;;;;3.47;2.42;;;;;;;13.99;49.82;97490.56;1811264;75;25741;-82
2021/05/08 08:47:53;;;;;;;2.42;1.60;;;;;;;14.47;49.06;97487.77;1819712;75;25700;-81
2021/05/08 08:50:21;;;;;;;2.30;1.65;;;;;;;14.58;47.29;97488.31;1856692;75;25747;-82
2021/05/08 08:52:49;;;;;;;4.28;2.20;;;;;;;14.31;46.86;97493.30;1819117;77;27461;-83
2021/05/08 08:55:16;;;;;;;3.02;2.10;;;;;;;13.83;45.75;97496.62;1811166;77;25838;-83
2021/05/08 08:57:45;;;;;;;8.15;2.22;;;;;;;13.23;46.01;97485.17;1837478;75;25515;-83
2021/05/08 09:00:16;;;;;;;5.75;2.05;;;;;;;12.97;46.24;97498.98;1823052;77;26122;-82
2021/05/08 09:02:49;;;;;;;3.22;1.92;;;;;;;12.97;46.34;97492.20;1842878;75;25714;-82
2021/05/08 09:05:26;;;;;;;2.85;1.40;;;;;;;13.06;45.47;97484.08;1846372;75;27477;-81
2021/05/08 09:07:54;;;;;;;2.92;1.92;;;;;;;12.88;44.81;97483.55;1846885;75;26118;-83
2021/05/08 09:10:31;;;;;;;2.77;1.47;;;;;;;12.63;44.61;97486.29;1850749;75;25680;-82
2021/05/08 09:13:01;;;;;;;2.50;1.85;;;;;;;12.40;44.13;97494.20;1856727;77;26148;-83
2021/05/08 09:15:39;;;;;;;5.45;2.22;;;;;;;12.09;43.95;97486.09;1854240;75;25851;-83
2021/05/08 09:18:10;;;;;;;5.47;2.80;;;;;;;11.90;44.04;97500.06;1848304;75;27591;-81
2021/05/08 09:20:48;;;;;;;10.75;3.22;;;;;;;11.82;44.24;97503.86;1826155;77;25733;-82
2021/05/08 09:23:34;;;;;;;9.40;4.37;;;;;;;11.73;44.33;97507.81;1811009;75;25833;-84
2021/05/08 09:26:14;;;;;;;3.20;1.77;;;;;;;11.56;44.18;97508.02;1811267;75;25793;-82
2021/05/08 09:28:54;;;;;;;3.30;1.75;;;;;;;11.47;44.29;97501.20;1850573;77;25737;-82
2021/05/08 09:31:21;;;;;;;1.90;1.55;;;;;;;11.18;43.55;97495.80;1853819;75;28437;-82
2021/05/08 09:33:53;;;;;;;4.67;2.25;;;;;;;10.81;43.78;97495.98;1848071;76;25740;-81
2021/05/08 09:36:21;;;;;;;5.85;2.10;;;;;;;10.81;44.56;97500.87;1842363;76;25732;-81
2021/05/08 09:38:48;;;;;;;2.77;2.10;;;;;;;10.87;44.40;97504.58;1856651;76;25692;-82
2021/05/08 09:41:19;;;;;;;3.40;2.25;;;;;;;10.81;44.04;97501.39;1858161;76;25800;-83
2021/05/08 09:43:47;;;;;;;7.55;3.60;;;;;;;10.80;44.41;97506.48;1863733;76;27481;-82
2021/05/08 09:46:28;;;;;;;7.87;4.50;;;;;;;10.80;44.65;97505.12;1865273;76;25669;-82
2021/05/08 09:49:15;;;;;;;11.03;4.40;;;;;;;10.85;44.78;97501.80;1865382;76;25708;-81
2021/05/08 09:51:43;;;;;;;8.28;2.80;;;;;;;10.93;44.84;97502.92;1865272;76;25743;-85
2021/05/08 09:54:17;;;;;;;4.78;2.45;;;;;;;11.05;45.73;97497.18;1861660;76;25756;-84
2021/05/08 09:56:50;;;;;;;4.85;2.55;;;;;;;11.11;45.28;97502.55;1863874;76;27477;-82
2021/05/08 09:59:30;;;;;;;9.35;3.00;;;;;;;11.46;45.32;97496.32;1861494;76;25666;-82
2021/05/08 10:02:10;;;;;;;4.35;2.80;;;;;;;11.89;45.32;97495.17;1864357;76;25669;-82
2021/05/08 10:04:42;;;;;;;4.15;1.72;;;;;;;12.28;44.64;97489.19;1845020;76;25796;-81
2021/05/08 10:07:11;;;;;;;;;;;;;;;12.34;43.73;97495.06;1834525;76;25722;-82
2021/05/08 10:09:42;;;;;;;4.83;2.50;;;;;;;12.23;42.51;97483.07;1850072;76;27654;-82
2021/05/08 10:12:17;;;;;;;2.75;1.80;;;;;;;12.08;42.62;97482.55;1851714;76;26111;-82
2021/05/08 10:14:47;;;;;;;6.85;2.15;;;;;;;11.89;42.51;97476.24;1831598;76;25761;-83
2021/05/08 10:17:21;;;;;;;3.40;1.92;;;;;;;11.82;42.53;97484.94;1839717;76;25771;-82
2021/05/08 10:19:51;;;;;;;3.12;1.67;;;;;;;11.71;42.42;97492.32;1853575;76;25922;-84
2021/05/08 10:22:20;;;;;;;2.95;1.50;;;;;;;11.52;42.35;97486.50;1864326;76;27562;-83
2021/05/08 10:24:49;;;;;;;5.78;2.47;;;;;;;11.35;42.51;97489.41;1865641;76;25746;-82
2021/05/08 10:27:17;;;;;;;3.40;2.10;;;;;;;11.27;42.83;97486.92;1857334;76;25806;-82
2021/05/08 10:29:48;;;;;;;1.77;1.62;;;;;;;11.28;42.89;97492.63;1855954;76;26413;-83
2021/05/08 10:32:18;;;;;;;6.85;3.30;;;;;;;11.23;42.66;97493.81;1820736;76;25845;-82
2021/05/08 10:34:58;;;;;;;3.00;1.80;;;;;;;11.22;42.63;97489.45;1795640;78;28452;-82
2021/05/08 10:37:25;;;;;;;2.58;1.72;;;;;;;11.23;42.81;97493.81;1803775;78;25798;-84
2021/05/08 10:39:59;;;;;;;3.45;2.40;;;;;;;11.18;42.42;97496.62;1790124;78;25815;-83
2021/05/08 10:42:49;;;;;;;2.92;1.67;;;;;;;11.03;41.97;97489.28;1789997;78;25958;-84
2021/05/08 10:45:24;;;;;;;2.35;1.52;;;;;;;11.04;42.48;97495.52;1790170;78;26302;-83
2021/05/08 10:48:03;;;;;;;3.15;1.77;;;;;;;11.67;43.68;97487.06;1790038;78;27553;-82
2021/05/08 10:50:48;;;;;;;3.52;1.57;;;;;;;12.36;42.20;97483.50;1789966;78;26209;-85
2021/05/08 10:53:18;;;;;;;3.20;1.60;;;;;;;12.90;41.92;97467.08;1790004;78;25675;-82
2021/05/08 10:55:57;;;;;;;3.12;2.22;;;;;;;13.10;40.76;97470.38;1790068;78;25712;-84
2021/05/08 10:58:35;;;;;;;3.58;1.50;;;;;;;13.06;40.82;97467.81;1791038;78;25790;-83
2021/05/08 11:01:08;;;;;;;4.17;2.20;;;;;;;12.73;40.45;97461.40;1808883;78;27699;-85
2021/05/08 11:03:53;;;;;;;4.35;2.10;;;;;;;12.48;40.50;97472.25;1789790;78;26029;-84
2021/05/08 11:06:21;;;;;;;3.40;1.90;;;;;;;12.43;40.46;97473.46;1790256;78;25909;-85
2021/05/08 11:08:51;;;;;;;2.30;1.87;;;;;;;12.51;40.44;97466.92;1789863;78;25794;-85
2021/05/08 11:11:22;;;;;;;4.25;2.00;;;;;;;12.80;40.22;97464.06;1814605;77;25929;-84
2021/05/08 11:13:59;;;;;;;2.07;1.50;;;;;;;13.28;39.75;97460.91;1815960;78;27637;-84
2021/05/08 11:16:31;;;;;;;4.03;2.17;;;;;;;13.90;39.41;97469.69;1799292;78;25782;-81
2021/05/08 11:19:02;;;;;;;3.72;1.40;;;;;;;14.02;39.20;97466.48;1802055;78;25697;-82
2021/05/08 11:21:35;;;;;;;2.98;1.85;;;;;;;14.33;38.97;97464.03;1791355;77;26376;-86
2021/05/08 11:24:05;;;;;;;2.00;1.65;;;;;;;14.88;38.86;97460.18;1790091;78;26296;-85
2021/05/08 11:26:41;;;;;;;3.27;1.95;;;;;;;15.42;38.56;97458.92;1804078;78;27493;-85
2021/05/08 11:29:27;;;;;;;2.90;1.80;;;;;;;15.73;38.22;97459.02;1789671;78;25696;-82
2021/05/08 11:31:58;;;;;;;4.45;2.00;;;;;;;15.61;36.99;97463.67;1810315;76;26279;-86
2021/05/08 11:34:31;;;;;;;3.10;1.87;;;;;;;15.38;36.61;97473.53;1790985;78;25883;-83
2021/05/08 11:37:08;;;;;;;2.95;1.90;;;;;;;14.84;35.32;97478.05;1789956;78;25723;-83
2021/05/08 11:39:46;;;;;;;5.35;2.00;;;;;;;14.28;35.60;97465.25;1799302;78;27707;-85
2021/05/08 11:42:17;;;;;;;2.80;1.98;;;;;;;14.05;36.30;97476.88;1818435;78;26131;-84
2021/05/08 11:44:54;;;;;;;4.45;2.10;;;;;;;13.93;36.56;97482.80;1804954;78;25739;-82
2021/05/08 11:47:30;;;;;;;2.70;2.00;;;;;;;13.86;37.00;97487.52;1815706;78;25759;-84
2021/05/08 11:50:13;;;;;;;2.87;1.80;;;;;;;13.77;37.57;97483.44;1805240;78;25853;-83